createdAt,value
2023-04-18T00:01:28.839Z,4.73
2023-04-18T00:03:55.949Z,6.30
2023-04-18T00:06:24.007Z,4.77
2023-04-18T00:08:50.981Z,4.63
2023-04-18T00:11:17.650Z,4.90
2023-04-18T00:13:44.324Z,4.60
2023-04-18T00:16:13.281Z,4.57
2023-04-18T00:18:40.072Z,5.13
2023-04-18T00:21:06.873Z,5.23
2023-04-18T00:23:35.173Z,5.33
2023-04-18T00:26:01.965Z,4.97
2023-04-18T00:28:28.523Z,6.43
2023-04-18T00:30:55.221Z,6.10
2023-04-18T00:33:21.864Z,4.43
2023-04-18T00:35:48.435Z,6.43
2023-04-18T00:38:14.981Z,5.90
2023-04-18T00:40:43.203Z,4.40
2023-04-18T00:43:09.786Z,4.73
2023-04-18T00:45:37.039Z,4.57
2023-04-18T00:48:03.941Z,5.00
2023-04-18T00:50:31.282Z,4.77
2023-04-18T00:52:58.566Z,6.07
2023-04-18T00:55:25.192Z,4.70
2023-04-18T00:57:53.494Z,4.70
2023-04-18T01:00:22.702Z,6.07
2023-04-18T01:02:52.977Z,4.22
2023-04-18T01:05:21.337Z,6.50
2023-04-18T01:07:48.046Z,6.40
2023-04-18T01:10:14.621Z,5.63
2023-04-18T01:12:41.415Z,4.73
2023-04-18T01:15:09.926Z,4.23
2023-04-18T01:17:36.532Z,4.43
2023-04-18T01:20:06.193Z,5.40
2023-04-18T01:22:33.732Z,4.25
2023-04-18T01:25:06.924Z,4.27
2023-04-18T01:27:33.460Z,4.83
2023-04-18T01:30:00.037Z,4.70
2023-04-18T01:32:26.658Z,4.73
2023-04-18T01:34:53.273Z,4.90
2023-04-18T01:37:19.864Z,4.80
2023-04-18T01:39:47.732Z,6.17
2023-04-18T01:42:15.724Z,4.80
2023-04-18T01:44:43.128Z,4.93
2023-04-18T01:47:09.665Z,5.30
2023-04-18T01:49:36.182Z,5.07
2023-04-18T01:52:02.713Z,4.90
2023-04-18T01:54:29.530Z,4.97
2023-04-18T01:56:56.068Z,7.20
2023-04-18T01:59:24.061Z,6.40
2023-04-18T02:01:50.734Z,5.67
2023-04-18T02:04:17.574Z,4.27
2023-04-18T02:06:44.296Z,5.33
2023-04-18T02:09:10.862Z,4.50
2023-04-18T02:11:37.424Z,5.13
2023-04-18T02:14:03.946Z,4.67
2023-04-18T02:16:31.921Z,5.10
2023-04-18T02:18:58.577Z,4.97
2023-04-18T02:21:25.253Z,4.93
2023-04-18T02:23:52.070Z,4.70
2023-04-18T02:26:18.700Z,5.57
2023-04-18T02:28:45.254Z,5.73
2023-04-18T02:31:14.847Z,4.60
2023-04-18T02:36:10.009Z,5.43
2023-04-18T02:38:36.610Z,5.23
2023-04-18T02:41:03.592Z,5.33
2023-04-18T02:43:30.203Z,5.70
2023-04-18T02:45:56.910Z,5.23
2023-04-18T02:48:23.970Z,5.37
2023-04-18T02:50:51.873Z,5.37
2023-04-18T02:53:18.457Z,4.83
2023-04-18T02:55:45.011Z,4.80
2023-04-18T02:58:11.677Z,5.20
2023-04-18T03:00:38.228Z,5.90
2023-04-18T03:03:05.536Z,4.87
2023-04-18T03:05:32.369Z,5.50
2023-04-18T03:08:00.308Z,4.90
2023-04-18T03:10:26.859Z,4.50
2023-04-18T03:12:53.456Z,6.27
2023-04-18T03:15:20.316Z,5.90
2023-04-18T03:17:46.933Z,5.27
2023-04-18T03:20:13.546Z,5.57
2023-04-18T03:22:40.253Z,5.67
2023-04-18T03:25:09.162Z,5.07
2023-04-18T03:27:35.794Z,5.65
2023-04-18T03:30:02.626Z,4.87
2023-04-18T03:32:29.239Z,5.23
2023-04-18T03:34:55.958Z,5.20
2023-04-18T03:37:22.508Z,5.40
2023-04-18T03:39:49.091Z,4.87
2023-04-18T03:42:17.038Z,10.60
2023-04-18T03:44:43.607Z,10.07
2023-04-18T03:47:10.252Z,5.60
2023-04-18T03:49:36.952Z,5.73
2023-04-18T03:52:03.669Z,5.10
2023-04-18T03:54:30.231Z,5.57
2023-04-18T03:56:59.279Z,5.80
2023-04-18T03:59:27.290Z,5.63
2023-04-18T04:01:53.917Z,5.57
2023-04-18T04:04:20.695Z,5.43
2023-04-18T04:06:47.634Z,5.63
2023-04-18T04:09:14.217Z,5.60
2023-04-18T04:11:40.850Z,5.23
2023-04-18T04:14:07.452Z,5.63
2023-04-18T04:16:35.657Z,5.70
2023-04-18T04:19:02.322Z,5.30
2023-04-18T04:21:30.626Z,5.67
2023-04-18T04:23:57.315Z,5.67
2023-04-18T04:26:24.012Z,5.73
2023-04-18T04:28:51.616Z,5.00
2023-04-18T04:31:18.688Z,5.60
2023-04-18T04:33:46.740Z,5.57
2023-04-18T04:36:16.682Z,5.37
2023-04-18T04:38:45.026Z,12.67
2023-04-18T04:41:11.756Z,5.73
2023-04-18T04:43:41.282Z,5.27
2023-04-18T04:46:08.874Z,5.07
2023-04-18T04:48:35.719Z,5.70
2023-04-18T04:51:04.009Z,5.50
2023-04-18T04:53:30.643Z,5.47
2023-04-18T04:55:57.524Z,6.70
2023-04-18T04:58:24.328Z,5.70
2023-04-18T05:00:52.600Z,6.30
2023-04-18T05:03:19.603Z,5.00
2023-04-18T05:05:46.553Z,6.10
2023-04-18T05:08:14.542Z,6.13
2023-04-18T05:10:41.550Z,13.43
2023-04-18T05:13:08.202Z,9.40
2023-04-18T05:15:34.817Z,5.67
2023-04-18T05:18:01.485Z,6.03
2023-04-18T05:20:28.250Z,11.90
2023-04-18T05:22:54.988Z,11.07
2023-04-18T05:25:22.986Z,10.90
2023-04-18T05:27:50.939Z,6.20
2023-04-18T05:30:17.682Z,5.80
2023-04-18T05:32:44.402Z,13.30
2023-04-18T05:35:11.071Z,15.17
2023-04-18T05:37:37.685Z,15.20
2023-04-18T05:40:05.316Z,6.07
2023-04-18T05:42:33.318Z,16.87
2023-04-18T05:45:00.001Z,17.13
2023-04-18T05:47:28.477Z,18.13
2023-04-18T05:49:55.328Z,16.33
2023-04-18T05:52:22.079Z,9.73
2023-04-18T05:54:48.689Z,12.67
2023-04-18T05:57:15.372Z,14.10
2023-04-18T05:59:43.775Z,10.57
2023-04-18T06:02:13.418Z,7.13
2023-04-18T06:04:44.032Z,7.37
2023-04-18T06:07:11.105Z,13.77
2023-04-18T06:09:37.687Z,13.37
2023-04-18T06:12:04.476Z,15.60
2023-04-18T06:14:31.400Z,14.73
2023-04-18T06:16:59.605Z,20.77
2023-04-18T06:19:26.287Z,16.97
2023-04-18T06:21:53.412Z,15.50
2023-04-18T06:24:21.134Z,19.53
2023-04-18T06:26:47.738Z,19.83
2023-04-18T06:29:14.393Z,19.40
2023-04-18T06:31:42.035Z,21.83
2023-04-18T06:34:10.224Z,19.73
2023-04-18T06:36:36.836Z,21.10
2023-04-18T06:39:03.827Z,20.00
2023-04-18T06:41:31.674Z,21.97
2023-04-18T06:46:27.884Z,17.70
2023-04-18T06:48:54.554Z,24.67
2023-04-18T06:51:22.486Z,17.43
2023-04-18T06:53:52.501Z,16.83
2023-04-18T06:56:19.426Z,15.67
2023-04-18T06:58:46.309Z,17.33
2023-04-18T07:01:12.902Z,15.77
2023-04-18T07:03:39.659Z,11.43
2023-04-18T07:06:08.765Z,16.20
2023-04-18T07:08:36.732Z,13.50
2023-04-18T07:11:03.334Z,12.47
2023-04-18T07:13:29.908Z,13.57
2023-04-18T07:15:56.818Z,10.67
2023-04-18T07:18:34.259Z,8.60
2023-04-18T07:21:03.866Z,11.87
2023-04-18T07:23:30.532Z,10.90
2023-04-18T07:26:01.519Z,8.47
2023-04-18T07:28:28.226Z,8.63
2023-04-18T07:30:55.380Z,8.20
2023-04-18T07:33:22.024Z,11.17
2023-04-18T07:35:49.917Z,11.17
2023-04-18T07:38:16.619Z,10.83
2023-04-18T07:40:44.866Z,10.03
2023-04-18T07:43:12.868Z,8.80
2023-04-18T07:45:39.548Z,7.43
2023-04-18T07:48:06.520Z,9.47
2023-04-18T07:50:33.139Z,9.30
2023-04-18T07:52:59.736Z,9.13
2023-04-18T07:55:26.428Z,9.73
2023-04-18T07:57:53.079Z,10.03
2023-04-18T08:00:21.483Z,9.87
2023-04-18T08:02:48.216Z,9.53
2023-04-18T08:05:15.050Z,9.00
2023-04-18T08:07:41.832Z,9.57
2023-04-18T08:10:09.173Z,8.33
2023-04-18T08:12:36.772Z,6.70
2023-04-18T08:15:03.805Z,7.27
2023-04-18T08:17:33.045Z,7.10
2023-04-18T08:20:00.834Z,6.85
2023-04-18T08:22:27.448Z,6.93
2023-04-18T08:25:04.332Z,7.37
2023-04-18T08:27:32.337Z,8.83
2023-04-18T08:29:59.008Z,8.03
2023-04-18T08:32:25.731Z,8.50
2023-04-18T08:34:53.750Z,8.03
2023-04-18T08:37:20.388Z,7.20
2023-04-18T08:39:47.057Z,9.67
2023-04-18T08:42:16.436Z,12.97
2023-04-18T08:44:43.249Z,33.80
2023-04-18T08:47:09.982Z,10.07
2023-04-18T08:49:36.639Z,8.37
2023-04-18T08:52:11.129Z,9.50
2023-04-18T08:54:41.969Z,8.37
2023-04-18T08:57:10.394Z,9.57
2023-04-18T08:59:37.039Z,8.67
2023-04-18T09:02:05.537Z,9.53
2023-04-18T09:04:36.659Z,8.90
2023-04-18T09:07:06.832Z,9.07
2023-04-18T09:09:47.001Z,10.00
2023-04-18T09:12:15.203Z,10.13
2023-04-18T09:14:48.544Z,12.47
2023-04-18T09:17:21.840Z,11.70
2023-04-18T09:19:50.062Z,10.20
2023-04-18T09:22:18.137Z,9.73
2023-04-18T09:24:53.584Z,10.57
2023-04-18T09:27:23.253Z,11.23
2023-04-18T09:32:26.832Z,10.70
2023-04-18T09:34:58.178Z,11.23
2023-04-18T09:37:26.815Z,9.10
2023-04-18T09:39:54.179Z,9.32
2023-04-18T09:42:21.648Z,8.88
2023-04-18T09:45:06.094Z,8.52
2023-04-18T09:47:35.142Z,10.13
2023-04-18T09:50:03.569Z,10.77
2023-04-18T09:52:34.832Z,10.80
2023-04-18T09:55:03.561Z,9.93
2023-04-18T09:57:32.366Z,11.63
2023-04-18T10:00:10.690Z,9.35
2023-04-18T10:02:49.434Z,9.20
2023-04-18T10:05:19.533Z,12.43
2023-04-18T10:07:50.036Z,11.73
2023-04-18T10:10:17.452Z,10.80
2023-04-18T10:12:44.800Z,10.70
2023-04-18T10:15:11.834Z,12.48
2023-04-18T10:17:56.083Z,9.13
2023-04-18T10:20:31.049Z,14.13
2023-04-18T10:23:00.013Z,10.38
2023-04-18T10:25:49.377Z,11.30
2023-04-18T10:28:16.466Z,12.50
2023-04-18T10:30:56.650Z,16.58
2023-04-18T10:33:32.141Z,17.35
2023-04-18T10:36:01.347Z,16.63
2023-04-18T10:38:29.667Z,17.80
2023-04-18T10:41:15.148Z,19.75
2023-04-18T10:44:18.339Z,16.35
2023-04-18T10:47:31.062Z,15.55
2023-04-18T10:50:01.474Z,15.95
2023-04-18T10:52:28.538Z,13.82
2023-04-18T10:55:07.446Z,14.60
2023-04-18T10:57:42.498Z,15.68
2023-04-18T11:00:14.650Z,13.98
2023-04-18T11:02:49.347Z,13.32
2023-04-18T11:05:20.652Z,12.18
2023-04-18T11:07:48.983Z,11.13
2023-04-18T11:10:21.873Z,12.20
2023-04-18T11:12:49.769Z,10.38
2023-04-18T11:15:21.193Z,10.18
2023-04-18T11:17:57.517Z,9.23
2023-04-18T11:20:24.414Z,7.43
2023-04-18T11:22:54.400Z,11.75
2023-04-18T11:25:25.293Z,14.43
2023-04-18T11:27:52.019Z,13.40
2023-04-18T11:30:19.021Z,12.05
2023-04-18T11:32:46.866Z,11.35
2023-04-18T11:35:15.399Z,12.43
2023-04-18T11:37:45.350Z,8.50
2023-04-18T11:40:12.977Z,11.35
2023-04-18T11:42:41.567Z,9.88
2023-04-18T11:45:12.629Z,11.85
2023-04-18T11:47:41.795Z,9.13
2023-04-18T11:50:11.304Z,11.77
2023-04-18T11:52:39.676Z,10.80
2023-04-18T11:55:14.076Z,13.63
2023-04-18T11:57:42.174Z,10.13
2023-04-18T12:00:12.165Z,9.48
2023-04-18T12:02:41.125Z,9.93
2023-04-18T12:05:08.580Z,9.30
2023-04-18T12:07:37.736Z,10.63
2023-04-18T12:10:06.148Z,11.57
2023-04-18T12:12:33.334Z,9.40
2023-04-18T12:15:03.338Z,10.07
2023-04-18T12:17:31.069Z,8.98
2023-04-18T12:20:02.041Z,10.02
2023-04-18T12:22:43.178Z,8.20
2023-04-18T12:25:27.090Z,7.35
2023-04-18T12:27:57.866Z,9.00
2023-04-18T12:30:27.203Z,8.43
2023-04-18T12:32:54.865Z,7.05
2023-04-18T12:35:22.343Z,8.15
2023-04-18T12:37:50.073Z,7.13
2023-04-18T12:40:18.994Z,6.22
2023-04-18T12:42:46.551Z,8.50
2023-04-18T12:45:14.013Z,6.00
2023-04-18T12:47:43.912Z,6.50
2023-04-18T12:50:12.175Z,5.65
2023-04-18T12:52:40.267Z,7.07
2023-04-18T12:55:08.194Z,5.47
2023-04-18T12:57:35.033Z,5.25
2023-04-18T13:00:02.151Z,5.18
2023-04-18T13:02:29.254Z,4.75
2023-04-18T13:04:58.384Z,6.22
2023-04-18T13:07:25.216Z,4.75
2023-04-18T13:09:51.860Z,5.40
2023-04-18T13:12:18.986Z,4.35
2023-04-18T13:14:46.112Z,4.97
2023-04-18T13:17:13.124Z,4.22
2023-04-18T13:19:39.732Z,6.50
2023-04-18T13:22:07.938Z,5.78
2023-04-18T13:24:34.599Z,5.53
2023-04-18T13:27:02.327Z,4.70
2023-04-18T13:29:28.955Z,5.38
2023-04-18T13:31:55.677Z,4.68
2023-04-18T13:34:22.336Z,3.63
2023-04-18T13:36:48.919Z,5.35
2023-04-18T13:39:17.373Z,5.35
2023-04-18T13:41:44.060Z,5.95
2023-04-18T13:44:11.043Z,4.90
2023-04-18T13:46:38.062Z,5.32
2023-04-18T13:49:04.689Z,5.97
2023-04-18T13:51:31.663Z,3.95
2023-04-18T13:54:00.478Z,4.47
2023-04-18T13:56:28.536Z,4.38
2023-04-18T13:58:55.902Z,7.00
2023-04-18T14:01:22.559Z,5.25
2023-04-18T14:03:49.377Z,5.93
2023-04-18T14:06:16.033Z,6.60
2023-04-18T14:08:42.628Z,5.75
2023-04-18T14:11:09.217Z,6.15
2023-04-18T14:13:37.144Z,5.65
2023-04-18T14:16:04.459Z,5.78
2023-04-18T14:18:31.067Z,6.22
2023-04-18T14:20:57.635Z,6.03
2023-04-18T14:23:25.800Z,4.85
2023-04-18T14:25:52.349Z,5.47
2023-04-18T14:28:21.547Z,6.38
2023-04-18T14:30:49.584Z,5.28
2023-04-18T14:33:16.274Z,5.22
2023-04-18T14:35:43.782Z,5.78
2023-04-18T14:38:11.178Z,5.22
2023-04-18T14:40:38.011Z,5.03
2023-04-18T14:43:04.571Z,4.90
2023-04-18T14:45:32.718Z,5.20
2023-04-18T14:48:00.748Z,4.38
2023-04-18T14:50:27.603Z,4.45
2023-04-18T14:52:54.307Z,6.55
2023-04-18T14:55:20.883Z,5.60
2023-04-18T14:57:47.504Z,6.45
2023-04-18T15:00:15.456Z,5.68
2023-04-18T15:02:42.233Z,5.95
2023-04-18T15:05:11.434Z,6.03
2023-04-18T15:07:38.220Z,6.00
2023-04-18T15:10:05.824Z,5.40
2023-04-18T15:12:32.799Z,5.20
2023-04-18T15:14:59.902Z,5.78
2023-04-18T15:17:26.687Z,5.15
2023-04-18T15:19:53.411Z,5.15
2023-04-18T15:22:21.304Z,4.63
2023-04-18T15:24:47.898Z,4.28
2023-04-18T15:27:14.442Z,4.63
2023-04-18T15:29:41.159Z,3.88
2023-04-18T15:32:07.965Z,5.10
2023-04-18T15:34:34.668Z,4.38
2023-04-18T15:37:02.277Z,3.78
2023-04-18T15:39:30.214Z,4.40
2023-04-18T15:41:56.927Z,4.50
2023-04-18T15:44:23.618Z,5.88
2023-04-18T15:46:50.911Z,4.25
2023-04-18T15:49:17.671Z,5.53
2023-04-18T15:51:44.240Z,5.20
2023-04-18T15:54:11.005Z,5.13
2023-04-18T15:56:39.013Z,5.97
2023-04-18T15:59:06.121Z,5.72
2023-04-18T16:01:33.213Z,6.03
2023-04-18T16:03:59.956Z,7.22
2023-04-18T16:06:26.633Z,6.97
2023-04-18T16:08:53.248Z,7.00
2023-04-18T16:11:21.603Z,8.23
2023-04-18T16:13:49.615Z,6.50
2023-04-18T16:16:16.736Z,7.25
2023-04-18T16:18:43.423Z,7.65
2023-04-18T16:21:13.151Z,6.05
2023-04-18T16:26:06.506Z,7.35
2023-04-18T16:28:37.577Z,8.68
2023-04-18T16:31:06.194Z,7.45
2023-04-18T16:33:33.092Z,7.15
2023-04-18T16:36:02.522Z,5.72
2023-04-18T16:38:29.349Z,6.00
2023-04-18T16:40:57.379Z,5.40
2023-04-18T16:43:26.675Z,8.60
2023-04-18T16:45:56.188Z,7.68
2023-04-18T16:48:24.418Z,6.00
2023-04-18T16:50:51.021Z,7.45
2023-04-18T16:53:17.686Z,10.10
2023-04-18T16:55:44.333Z,9.20
2023-04-18T16:58:11.192Z,7.90
2023-04-18T17:00:38.667Z,7.45
2023-04-18T17:03:07.272Z,6.72
2023-04-18T17:05:35.493Z,7.70
2023-04-18T17:08:03.576Z,10.18
2023-04-18T17:10:30.606Z,5.13
2023-04-18T17:12:57.764Z,8.13
2023-04-18T17:15:26.073Z,7.72
2023-04-18T17:17:52.897Z,5.82
2023-04-18T17:20:20.235Z,6.53
2023-04-18T17:22:48.172Z,7.47
2023-04-18T17:25:15.692Z,7.00
2023-04-18T17:27:42.914Z,6.15
2023-04-18T17:30:10.629Z,6.03
2023-04-18T17:32:42.813Z,5.40
2023-04-18T17:35:10.308Z,5.57
2023-04-18T17:37:37.253Z,5.43
2023-04-18T17:40:09.560Z,7.53
2023-04-18T17:42:36.793Z,6.18
2023-04-18T17:45:03.689Z,7.65
2023-04-18T17:47:31.630Z,7.00
2023-04-18T17:49:58.234Z,6.22
2023-04-18T17:52:24.955Z,5.78
2023-04-18T17:54:51.545Z,4.90
2023-04-18T17:57:19.936Z,6.00
2023-04-18T17:59:46.550Z,6.32
2023-04-18T18:02:13.201Z,6.30
2023-04-18T18:04:40.056Z,4.85
2023-04-18T18:07:06.761Z,7.40
2023-04-18T18:09:33.390Z,6.60
2023-04-18T18:12:00.070Z,5.93
2023-04-18T18:14:28.121Z,6.50
2023-04-18T18:16:54.818Z,7.35
2023-04-18T18:19:21.487Z,6.55
2023-04-18T18:21:48.088Z,8.45
2023-04-18T18:24:14.738Z,9.48
2023-04-18T18:26:41.464Z,7.90
2023-04-18T18:29:11.518Z,7.22
2023-04-18T18:31:39.566Z,6.90
2023-04-18T18:34:06.273Z,8.60
2023-04-18T18:36:32.975Z,7.68
2023-04-18T18:38:59.579Z,8.32
2023-04-18T18:41:26.283Z,9.90
2023-04-18T18:43:52.983Z,7.63
2023-04-18T18:46:20.513Z,8.23
2023-04-18T18:48:49.689Z,14.82
2023-04-18T18:51:17.918Z,6.70
2023-04-18T18:53:44.882Z,5.55
2023-04-18T18:56:11.475Z,7.40
2023-04-18T18:58:39.089Z,6.22
2023-04-18T19:01:06.637Z,6.40
2023-04-18T19:03:34.624Z,5.25
2023-04-18T19:06:04.238Z,5.95
2023-04-18T19:08:31.056Z,4.95
2023-04-18T19:10:57.644Z,8.20
2023-04-18T19:13:24.347Z,6.78
2023-04-18T19:15:51.534Z,8.73
2023-04-18T19:18:19.934Z,5.85
2023-04-18T19:20:46.811Z,6.00
2023-04-18T19:23:14.697Z,5.57
2023-04-18T19:25:41.499Z,8.90
2023-04-18T19:28:08.197Z,9.23
2023-04-18T19:30:34.791Z,5.13
2023-04-18T19:33:01.418Z,5.82
2023-04-18T19:35:28.228Z,6.70
2023-04-18T19:38:01.379Z,5.45
2023-04-18T19:40:29.989Z,6.47
2023-04-18T19:42:57.132Z,7.30
2023-04-18T19:45:23.759Z,6.28
2023-04-18T19:47:50.480Z,5.30
2023-04-18T19:50:17.225Z,6.13
2023-04-18T19:52:43.821Z,4.40
2023-04-18T19:55:10.554Z,5.35
2023-04-18T19:57:39.552Z,5.60
2023-04-18T20:00:09.114Z,6.90
2023-04-18T20:02:35.911Z,6.20
2023-04-18T20:05:02.965Z,6.60
2023-04-18T20:07:30.120Z,6.50
2023-04-18T20:09:56.812Z,5.50
2023-04-18T20:12:23.692Z,7.03
2023-04-18T20:14:52.158Z,8.07
2023-04-18T20:17:18.844Z,4.43
2023-04-18T20:19:49.508Z,6.40
2023-04-18T20:22:16.231Z,6.13
2023-04-18T20:24:44.908Z,5.53
2023-04-18T20:27:12.119Z,4.50
2023-04-18T20:29:38.823Z,4.80
2023-04-18T20:32:07.058Z,4.90
2023-04-18T20:34:33.656Z,4.95
2023-04-18T20:37:00.309Z,5.57
2023-04-18T20:39:28.008Z,4.30
2023-04-18T20:41:57.541Z,5.35
2023-04-18T20:46:54.859Z,4.47
2023-04-18T20:49:22.824Z,5.72
2023-04-18T20:51:49.432Z,4.78
2023-04-18T20:54:16.391Z,5.80
2023-04-18T20:56:43.208Z,5.63
2023-04-18T20:59:09.823Z,5.30
2023-04-18T21:01:37.285Z,5.03
2023-04-18T21:04:04.200Z,4.95
2023-04-18T21:06:32.878Z,5.78
2023-04-18T21:08:59.460Z,5.00
2023-04-18T21:11:26.126Z,4.82
2023-04-18T21:13:52.679Z,5.43
2023-04-18T21:16:19.467Z,4.80
2023-04-18T21:18:46.121Z,4.32
2023-04-18T21:21:12.732Z,5.70
2023-04-18T21:23:44.246Z,4.63
2023-04-18T21:26:12.368Z,5.20
2023-04-18T21:28:53.198Z,5.03
2023-04-18T21:31:19.865Z,5.63
2023-04-18T21:33:46.463Z,5.45
2023-04-18T21:36:13.049Z,5.10
2023-04-18T21:38:39.616Z,5.07
2023-04-18T21:41:07.843Z,5.70
2023-04-18T21:43:34.478Z,5.30
2023-04-18T21:46:01.131Z,7.55
2023-04-18T21:48:27.802Z,5.00
2023-04-18T21:50:54.898Z,5.65
2023-04-18T21:53:21.649Z,5.68
2023-04-18T21:55:48.198Z,5.50
2023-04-18T21:58:16.131Z,5.28
2023-04-18T22:00:42.724Z,5.50
2023-04-18T22:03:09.435Z,6.25
2023-04-18T22:05:36.915Z,5.72
2023-04-18T22:08:03.829Z,4.43
2023-04-18T22:10:31.004Z,4.72
2023-04-18T22:12:58.393Z,5.40
2023-04-18T22:15:27.105Z,5.63
2023-04-18T22:17:54.295Z,6.22
2023-04-18T22:20:21.648Z,5.70
2023-04-18T22:22:48.230Z,5.18
2023-04-18T22:25:14.950Z,5.32
2023-04-18T22:27:42.976Z,4.97
2023-04-18T22:30:10.514Z,4.82
2023-04-18T22:32:38.949Z,5.85
2023-04-18T22:35:06.579Z,5.38
2023-04-18T22:37:33.215Z,5.55
2023-04-18T22:39:59.779Z,4.85
2023-04-18T22:42:26.331Z,4.95
2023-04-18T22:44:52.890Z,5.57
2023-04-18T22:47:19.477Z,4.72
2023-04-18T22:49:47.465Z,6.13
2023-04-18T22:52:14.239Z,5.15
2023-04-18T22:54:41.146Z,4.50
2023-04-18T22:57:07.875Z,5.13
2023-04-18T22:59:34.494Z,4.85
2023-04-18T23:02:01.446Z,6.30
2023-04-18T23:04:31.170Z,5.20
2023-04-18T23:09:27.025Z,4.90
2023-04-18T23:11:53.779Z,5.22
2023-04-18T23:14:21.460Z,4.40
2023-04-18T23:16:48.086Z,5.50
2023-04-18T23:19:14.728Z,4.50
2023-04-18T23:21:41.525Z,5.07
2023-04-18T23:24:10.683Z,5.32
2023-04-18T23:26:37.490Z,5.40
2023-04-18T23:29:04.132Z,6.15
2023-04-18T23:31:32.874Z,4.60
2023-04-18T23:33:59.538Z,5.38
2023-04-18T23:36:27.390Z,5.03
2023-04-18T23:38:54.067Z,5.82
2023-04-18T23:41:22.043Z,5.22
2023-04-18T23:43:48.657Z,4.55
2023-04-18T23:46:15.557Z,4.50
2023-04-18T23:48:42.296Z,4.85
2023-04-18T23:51:08.871Z,5.68
2023-04-18T23:53:35.450Z,5.25
2023-04-18T23:56:02.029Z,5.25
2023-04-18T23:58:31.673Z,5.03
